createdAt,value
2022-09-13T00:00:59.341Z,51.20
2022-09-13T00:03:26.068Z,51.20
2022-09-13T00:05:52.664Z,51.20
2022-09-13T00:08:19.349Z,51.00
2022-09-13T00:10:46.110Z,51.00
2022-09-13T00:13:13.073Z,51.00
2022-09-13T00:15:46.934Z,50.90
2022-09-13T00:18:13.691Z,50.90
2022-09-13T00:20:40.316Z,50.80
2022-09-13T00:23:06.919Z,50.80
2022-09-13T00:25:33.505Z,50.80
2022-09-13T00:28:00.090Z,50.80
2022-09-13T00:30:26.689Z,50.80
2022-09-13T00:32:53.436Z,50.80
2022-09-13T00:35:20.063Z,50.90
2022-09-13T00:37:46.637Z,50.80
2022-09-13T00:40:13.288Z,50.80
2022-09-13T00:42:39.884Z,50.80
2022-09-13T00:45:12.279Z,50.90
2022-09-13T00:47:59.628Z,50.90
2022-09-13T00:50:35.524Z,50.90
2022-09-13T00:53:09.498Z,50.90
2022-09-13T00:55:50.717Z,51.00
2022-09-13T00:58:30.705Z,51.00
2022-09-13T01:00:58.660Z,51.10
2022-09-13T01:03:26.268Z,51.10
2022-09-13T01:05:56.731Z,51.20
2022-09-13T01:08:23.332Z,51.10
2022-09-13T01:10:53.280Z,51.20
2022-09-13T01:13:23.479Z,51.20
2022-09-13T01:15:50.086Z,51.20
2022-09-13T01:18:16.757Z,51.00
2022-09-13T01:21:08.239Z,51.00
2022-09-13T01:23:51.755Z,51.00
2022-09-13T01:26:56.163Z,50.90
2022-09-13T01:29:43.885Z,50.90
2022-09-13T01:32:16.269Z,50.80
2022-09-13T01:35:16.075Z,50.80
2022-09-13T01:37:52.040Z,50.80
2022-09-13T01:40:57.460Z,50.80
2022-09-13T01:43:57.805Z,50.80
2022-09-13T01:46:47.624Z,50.80
2022-09-13T01:49:21.709Z,50.80
2022-09-13T01:51:54.820Z,50.80
2022-09-13T01:54:24.356Z,50.80
2022-09-13T01:57:01.049Z,50.80
2022-09-13T01:59:39.863Z,50.80
2022-09-13T02:02:40.116Z,50.90
2022-09-13T02:05:18.643Z,51.00
2022-09-13T02:07:50.701Z,51.00
2022-09-13T02:10:29.877Z,51.10
2022-09-13T02:12:56.916Z,51.10
2022-09-13T02:15:29.453Z,51.20
2022-09-13T02:18:08.529Z,51.10
2022-09-13T02:20:37.069Z,51.20
2022-09-13T02:23:08.387Z,51.20
2022-09-13T02:25:35.014Z,51.30
2022-09-13T02:28:03.173Z,51.30
2022-09-13T02:30:31.310Z,51.10
2022-09-13T02:33:01.927Z,51.10
2022-09-13T02:35:33.977Z,51.00
2022-09-13T02:38:05.930Z,51.00
2022-09-13T02:40:43.793Z,51.00
2022-09-13T02:43:22.539Z,50.80
2022-09-13T02:46:11.946Z,50.80
2022-09-13T02:49:07.129Z,50.90
2022-09-13T02:51:40.288Z,50.80
2022-09-13T02:54:13.477Z,50.80
2022-09-13T02:56:52.261Z,50.80
2022-09-13T02:59:22.749Z,50.80
2022-09-13T03:02:01.969Z,50.80
2022-09-13T03:04:28.576Z,50.80
2022-09-13T03:06:55.285Z,50.80
2022-09-13T03:09:21.917Z,50.80
2022-09-13T03:12:29.808Z,50.90
2022-09-13T03:15:15.962Z,51.00
2022-09-13T03:18:14.149Z,51.00
2022-09-13T03:20:55.088Z,51.00
2022-09-13T03:23:31.171Z,51.10
2022-09-13T03:26:02.979Z,51.10
2022-09-13T03:29:03.655Z,51.20
2022-09-13T03:31:41.656Z,51.20
2022-09-13T03:34:45.824Z,51.20
2022-09-13T03:37:25.518Z,51.30
2022-09-13T03:40:00.564Z,51.30
2022-09-13T03:43:04.459Z,51.10
2022-09-13T03:45:33.672Z,51.00
2022-09-13T03:48:00.267Z,51.00
2022-09-13T03:50:26.845Z,50.90
2022-09-13T03:53:00.098Z,50.90
2022-09-13T03:55:26.739Z,50.90
2022-09-13T03:57:53.311Z,51.00
2022-09-13T04:00:20.097Z,50.90
2022-09-13T04:02:46.683Z,50.90
2022-09-13T04:05:13.313Z,51.00
2022-09-13T04:07:39.917Z,51.00
2022-09-13T04:10:09.688Z,51.00
2022-09-13T04:12:41.248Z,50.90
2022-09-13T04:15:08.541Z,50.80
2022-09-13T04:17:36.220Z,50.80
2022-09-13T04:20:03.034Z,50.70
2022-09-13T04:22:29.624Z,50.90
2022-09-13T04:25:00.207Z,50.80
2022-09-13T04:27:28.928Z,50.90
2022-09-13T04:29:55.515Z,50.70
2022-09-13T04:32:22.108Z,50.90
2022-09-13T04:34:48.882Z,50.80
2022-09-13T04:37:15.491Z,50.80
2022-09-13T04:39:42.570Z,50.90
2022-09-13T04:42:10.293Z,50.90
2022-09-13T04:44:36.921Z,51.10
2022-09-13T04:47:03.731Z,51.10
2022-09-13T04:49:30.325Z,51.40
2022-09-13T04:51:57.141Z,51.50
2022-09-13T04:54:23.722Z,51.70
2022-09-13T04:56:50.309Z,51.90
2022-09-13T04:59:16.902Z,51.70
2022-09-13T05:01:43.867Z,51.50
2022-09-13T05:04:10.633Z,51.50
2022-09-13T05:06:37.367Z,51.30
2022-09-13T05:09:04.095Z,51.00
2022-09-13T05:11:30.767Z,51.20
2022-09-13T05:13:58.363Z,51.00
2022-09-13T05:16:26.278Z,51.20
2022-09-13T05:18:53.548Z,51.70
2022-09-13T05:21:20.169Z,52.10
2022-09-13T05:23:49.609Z,51.50
2022-09-13T05:26:16.383Z,51.20
2022-09-13T05:28:43.019Z,51.20
2022-09-13T05:31:16.141Z,51.20
2022-09-13T05:33:42.832Z,51.40
2022-09-13T05:36:09.463Z,51.90
2022-09-13T05:38:36.072Z,52.30
2022-09-13T05:41:03.964Z,52.00
2022-09-13T05:43:32.004Z,51.90
2022-09-13T05:46:06.685Z,51.90
2022-09-13T05:48:34.304Z,51.80
2022-09-13T05:51:11.032Z,51.90
2022-09-13T05:53:39.628Z,51.80
2022-09-13T05:56:07.488Z,51.80
2022-09-13T05:58:35.328Z,51.80
2022-09-13T06:01:01.901Z,51.80
2022-09-13T06:03:28.492Z,51.60
2022-09-13T06:05:56.393Z,51.70
2022-09-13T06:08:26.932Z,51.70
2022-09-13T06:11:00.600Z,51.60
2022-09-13T06:13:27.322Z,51.60
2022-09-13T06:15:57.341Z,51.60
2022-09-13T06:18:24.744Z,51.60
2022-09-13T06:20:51.342Z,51.60
2022-09-13T06:23:17.927Z,51.60
2022-09-13T06:25:44.512Z,51.70
2022-09-13T06:28:11.102Z,51.60
2022-09-13T06:30:37.670Z,51.60
2022-09-13T06:33:04.343Z,51.70
2022-09-13T06:35:30.961Z,51.60
2022-09-13T06:37:58.541Z,51.60
2022-09-13T06:40:25.654Z,51.70
2022-09-13T06:42:52.419Z,51.70
2022-09-13T06:45:18.998Z,51.70
2022-09-13T06:47:45.592Z,51.80
2022-09-13T06:50:12.323Z,51.80
2022-09-13T06:52:39.057Z,51.80
2022-09-13T06:55:08.482Z,52.00
2022-09-13T06:57:38.668Z,52.00
2022-09-13T07:00:05.704Z,52.10
2022-09-13T07:02:32.782Z,52.10
2022-09-13T07:04:59.364Z,52.00
2022-09-13T07:07:25.988Z,52.10
2022-09-13T07:09:52.573Z,52.10
2022-09-13T07:12:20.735Z,52.00
2022-09-13T07:14:47.436Z,51.90
2022-09-13T07:17:14.003Z,52.00
2022-09-13T07:19:40.673Z,51.90
2022-09-13T07:22:07.955Z,51.90
2022-09-13T07:24:34.542Z,52.10
2022-09-13T07:27:01.121Z,52.10
2022-09-13T07:29:27.783Z,52.10
2022-09-13T07:31:54.871Z,52.20
2022-09-13T07:34:23.041Z,52.10
2022-09-13T07:36:50.045Z,52.20
2022-09-13T07:39:21.528Z,52.10
2022-09-13T07:41:49.128Z,52.20
2022-09-13T07:44:15.759Z,52.20
2022-09-13T07:46:43.651Z,52.30
2022-09-13T07:49:14.682Z,52.30
2022-09-13T07:51:42.449Z,52.30
2022-09-13T07:54:14.105Z,52.20
2022-09-13T07:56:41.748Z,52.20
2022-09-13T07:59:12.641Z,52.30
2022-09-13T08:01:49.678Z,52.30
2022-09-13T08:04:18.619Z,52.30
2022-09-13T08:06:45.624Z,52.30
2022-09-13T08:09:12.373Z,52.40
2022-09-13T08:11:43.520Z,52.40
2022-09-13T08:14:11.630Z,52.60
2022-09-13T08:16:39.399Z,52.50
2022-09-13T08:19:06.396Z,52.60
2022-09-13T08:21:34.941Z,52.60
2022-09-13T08:24:01.756Z,52.40
2022-09-13T08:26:29.020Z,52.30
2022-09-13T08:28:59.564Z,52.20
2022-09-13T08:31:26.465Z,52.10
2022-09-13T08:33:53.480Z,52.10
2022-09-13T08:36:20.710Z,52.10
2022-09-13T08:38:48.233Z,52.00
2022-09-13T08:41:42.286Z,52.00
2022-09-13T08:44:29.546Z,52.00
2022-09-13T08:47:10.184Z,52.00
2022-09-13T08:49:40.681Z,52.00
2022-09-13T08:52:47.617Z,52.00
2022-09-13T08:55:28.901Z,51.90
2022-09-13T08:58:05.417Z,51.90
2022-09-13T09:00:40.681Z,51.90
2022-09-13T09:03:28.529Z,51.90
2022-09-13T09:05:55.186Z,51.90
2022-09-13T09:08:31.125Z,52.00
2022-09-13T09:10:58.849Z,52.00
2022-09-13T09:13:41.492Z,52.10
2022-09-13T09:16:52.841Z,52.10
2022-09-13T09:19:34.351Z,52.20
2022-09-13T09:22:04.145Z,52.20
2022-09-13T09:24:32.444Z,52.20
2022-09-13T09:27:18.915Z,52.20
2022-09-13T09:29:46.957Z,52.20
2022-09-13T09:32:31.575Z,52.20
2022-09-13T09:35:10.001Z,52.30
2022-09-13T09:37:37.127Z,52.20
2022-09-13T09:40:07.967Z,52.30
2022-09-13T09:42:40.720Z,52.20
2022-09-13T09:45:26.504Z,52.80
2022-09-13T09:47:53.539Z,52.20
2022-09-13T09:50:29.449Z,52.20
2022-09-13T09:53:06.675Z,52.30
2022-09-13T09:55:55.041Z,52.20
2022-09-13T09:58:39.402Z,52.30
2022-09-13T10:01:10.835Z,52.20
2022-09-13T10:03:37.983Z,52.20
2022-09-13T10:06:15.375Z,52.20
2022-09-13T10:08:42.261Z,52.20
2022-09-13T10:11:09.141Z,52.20
2022-09-13T10:13:38.285Z,52.20
2022-09-13T10:16:06.402Z,52.10
2022-09-13T10:18:49.941Z,52.10
2022-09-13T10:21:19.288Z,52.10
2022-09-13T10:23:47.337Z,52.20
2022-09-13T10:26:18.035Z,52.20
2022-09-13T10:29:23.183Z,52.10
2022-09-13T10:31:50.296Z,52.00
2022-09-13T10:34:27.002Z,52.00
2022-09-13T10:36:58.616Z,52.00
2022-09-13T10:39:25.628Z,51.90
2022-09-13T10:42:06.315Z,52.00
2022-09-13T10:44:39.513Z,52.00
2022-09-13T10:47:45.087Z,52.00
2022-09-13T10:50:24.871Z,52.00
2022-09-13T10:52:52.439Z,51.80
2022-09-13T10:55:18.996Z,51.90
2022-09-13T10:57:46.295Z,51.80
2022-09-13T11:00:13.785Z,51.90
2022-09-13T11:03:03.161Z,51.90
2022-09-13T11:05:52.087Z,51.90
2022-09-13T11:08:24.452Z,51.90
2022-09-13T11:11:19.362Z,51.90
2022-09-13T11:14:04.605Z,51.90
2022-09-13T11:17:03.771Z,52.50
2022-09-13T11:19:49.344Z,51.80
2022-09-13T11:22:30.988Z,51.90
2022-09-13T11:25:19.448Z,52.70
2022-09-13T11:28:04.112Z,53.20
2022-09-13T11:30:33.245Z,52.90
2022-09-13T11:33:16.199Z,53.00
2022-09-13T11:35:47.008Z,52.80
2022-09-13T11:38:35.462Z,52.70
2022-09-13T11:41:31.156Z,52.80
2022-09-13T11:44:22.380Z,53.00
2022-09-13T11:47:00.885Z,53.20
2022-09-13T11:49:48.925Z,53.80
2022-09-13T11:52:32.205Z,53.60
2022-09-13T11:55:18.836Z,53.50
2022-09-13T11:58:00.282Z,53.20
2022-09-13T12:00:44.114Z,53.00
2022-09-13T12:03:11.122Z,53.00
2022-09-13T12:05:45.644Z,52.90
2022-09-13T12:08:32.814Z,52.80
2022-09-13T12:11:01.190Z,52.70
2022-09-13T12:13:30.557Z,52.80
2022-09-13T12:16:06.967Z,52.90
2022-09-13T12:18:43.123Z,52.90
2022-09-13T12:21:14.436Z,52.80
2022-09-13T12:23:51.744Z,53.50
2022-09-13T12:26:49.026Z,53.10
2022-09-13T12:29:38.350Z,53.20
2022-09-13T12:32:06.186Z,53.20
2022-09-13T12:34:57.617Z,53.10
2022-09-13T12:37:40.425Z,53.00
2022-09-13T12:40:26.929Z,53.30
2022-09-13T12:43:07.969Z,53.20
2022-09-13T12:45:58.344Z,53.30
2022-09-13T12:48:50.228Z,53.40
2022-09-13T12:51:54.068Z,53.50
2022-09-13T12:54:31.765Z,53.30
2022-09-13T12:57:08.691Z,53.30
2022-09-13T12:59:55.477Z,53.20
2022-09-13T13:02:29.271Z,53.40
2022-09-13T13:05:02.808Z,53.40
2022-09-13T13:07:29.585Z,53.20
2022-09-13T13:09:56.295Z,53.20
2022-09-13T13:12:32.576Z,52.90
2022-09-13T13:15:05.735Z,52.80
2022-09-13T13:17:40.989Z,52.80
2022-09-13T13:20:38.884Z,52.70
2022-09-13T13:23:38.301Z,52.80
2022-09-13T13:26:13.354Z,52.80
2022-09-13T13:28:47.508Z,52.70
2022-09-13T13:31:31.934Z,52.60
2022-09-13T13:34:14.303Z,52.80
2022-09-13T13:36:43.549Z,52.60
2022-09-13T13:39:12.473Z,52.50
2022-09-13T13:41:43.441Z,52.00
2022-09-13T13:44:15.944Z,51.90
2022-09-13T13:46:42.612Z,50.50
2022-09-13T13:49:30.993Z,51.00
2022-09-13T13:52:15.112Z,49.90
2022-09-13T13:55:02.408Z,50.30
2022-09-13T13:57:41.127Z,50.60
2022-09-13T14:00:12.652Z,50.40
2022-09-13T14:03:10.059Z,50.60
2022-09-13T14:05:55.160Z,51.00
2022-09-13T14:08:54.417Z,51.40
2022-09-13T14:11:42.363Z,52.40
2022-09-13T14:14:40.092Z,52.60
2022-09-13T14:17:34.016Z,52.60
2022-09-13T14:20:12.903Z,52.40
2022-09-13T14:22:39.552Z,52.20
2022-09-13T14:25:24.824Z,52.40
2022-09-13T14:27:55.421Z,52.80
2022-09-13T14:30:32.035Z,52.90
2022-09-13T14:32:58.625Z,52.50
2022-09-13T14:35:32.979Z,52.60
2022-09-13T14:38:33.320Z,52.60
2022-09-13T14:41:02.324Z,52.60
2022-09-13T14:43:29.330Z,52.50
2022-09-13T14:46:25.695Z,52.70
2022-09-13T14:49:03.542Z,52.50
2022-09-13T14:51:33.021Z,53.70
2022-09-13T14:54:21.533Z,53.20
2022-09-13T14:56:56.014Z,52.50
2022-09-13T14:59:34.317Z,52.50
2022-09-13T15:02:15.825Z,52.30
2022-09-13T15:04:43.225Z,52.30
2022-09-13T15:07:21.592Z,52.30
2022-09-13T15:09:48.212Z,52.30
2022-09-13T15:12:26.588Z,52.50
2022-09-13T15:15:30.427Z,52.50
2022-09-13T15:18:11.627Z,52.50
2022-09-13T15:20:58.780Z,53.00
2022-09-13T15:23:25.275Z,52.40
2022-09-13T15:26:05.740Z,52.40
2022-09-13T15:28:34.381Z,52.50
2022-09-13T15:31:01.328Z,52.50
2022-09-13T15:33:32.193Z,52.50
2022-09-13T15:36:18.067Z,52.40
2022-09-13T15:39:07.587Z,52.50
2022-09-13T15:41:35.559Z,52.70
2022-09-13T15:44:03.075Z,53.30
2022-09-13T15:46:29.741Z,54.40
2022-09-13T15:48:59.158Z,53.50
2022-09-13T15:51:25.849Z,53.00
2022-09-13T15:53:52.456Z,52.80
2022-09-13T15:56:20.793Z,52.80
2022-09-13T15:58:47.625Z,52.60
2022-09-13T16:01:14.823Z,52.60
2022-09-13T16:03:41.453Z,53.30
2022-09-13T16:06:09.235Z,52.80
2022-09-13T16:08:36.630Z,52.60
2022-09-13T16:11:03.259Z,52.30
2022-09-13T16:13:29.842Z,52.40
2022-09-13T16:15:58.077Z,52.20
2022-09-13T16:18:24.875Z,52.10
2022-09-13T16:20:51.495Z,52.30
2022-09-13T16:23:18.072Z,52.30
2022-09-13T16:25:44.667Z,52.40
2022-09-13T16:28:17.312Z,52.30
2022-09-13T16:30:43.911Z,52.40
2022-09-13T16:33:10.467Z,52.40
2022-09-13T16:35:37.049Z,52.40
2022-09-13T16:38:03.624Z,52.30
2022-09-13T16:40:30.305Z,52.30
2022-09-13T16:42:56.916Z,52.30
2022-09-13T16:45:23.687Z,52.30
2022-09-13T16:47:50.289Z,52.30
2022-09-13T16:50:17.132Z,52.20
2022-09-13T16:52:43.706Z,52.30
2022-09-13T16:55:10.365Z,52.30
2022-09-13T16:57:37.241Z,52.20
2022-09-13T17:00:08.815Z,52.30
2022-09-13T17:02:35.783Z,52.20
2022-09-13T17:05:02.538Z,52.30
2022-09-13T17:07:29.136Z,52.20
2022-09-13T17:09:55.746Z,52.30
2022-09-13T17:12:22.320Z,52.20
2022-09-13T17:14:50.565Z,52.20
2022-09-13T17:17:17.389Z,52.20
2022-09-13T17:19:44.576Z,52.30
2022-09-13T17:22:11.208Z,52.60
2022-09-13T17:24:37.925Z,52.80
2022-09-13T17:27:06.591Z,52.60
2022-09-13T17:29:34.489Z,52.40
2022-09-13T17:32:01.861Z,52.30
2022-09-13T17:34:28.589Z,52.40
2022-09-13T17:36:55.317Z,52.40
2022-09-13T17:39:21.956Z,52.40
2022-09-13T17:41:48.724Z,52.40
2022-09-13T17:44:16.221Z,52.50
2022-09-13T17:46:42.994Z,52.60
2022-09-13T17:49:09.639Z,52.50
2022-09-13T17:51:36.218Z,52.60
2022-09-13T17:54:05.764Z,52.40
2022-09-13T17:56:37.013Z,52.40
2022-09-13T17:59:11.548Z,52.50
2022-09-13T18:01:39.593Z,52.40
2022-09-13T18:04:07.678Z,52.50
2022-09-13T18:06:35.200Z,52.40
2022-09-13T18:09:01.776Z,52.50
2022-09-13T18:11:28.359Z,52.60
2022-09-13T18:13:54.962Z,52.70
2022-09-13T18:16:23.338Z,52.70
2022-09-13T18:18:50.617Z,52.70
2022-09-13T18:21:21.125Z,52.60
2022-09-13T18:23:48.531Z,52.70
2022-09-13T18:26:16.676Z,52.70
2022-09-13T18:28:43.396Z,52.60
2022-09-13T18:31:13.171Z,52.60
2022-09-13T18:33:39.855Z,52.50
2022-09-13T18:36:11.503Z,52.50
2022-09-13T18:38:39.673Z,52.30
2022-09-13T18:41:11.240Z,52.40
2022-09-13T18:43:39.390Z,52.50
2022-09-13T18:46:10.509Z,52.50
2022-09-13T18:48:41.941Z,52.40
2022-09-13T18:51:09.531Z,52.40
2022-09-13T18:53:36.224Z,52.40
2022-09-13T18:56:03.711Z,52.40
2022-09-13T18:58:31.352Z,52.30
2022-09-13T19:01:15.363Z,52.30
2022-09-13T19:03:48.759Z,52.30
2022-09-13T19:06:19.580Z,53.00
2022-09-13T19:08:46.993Z,52.30
2022-09-13T19:11:35.307Z,52.30
2022-09-13T19:14:00.321Z,52.30
2022-09-13T19:16:26.933Z,52.30
2022-09-13T19:18:53.597Z,52.30
2022-09-13T19:21:21.791Z,52.30
2022-09-13T19:23:58.896Z,52.30
2022-09-13T19:26:28.919Z,52.30
2022-09-13T19:29:22.787Z,52.30
2022-09-13T19:31:50.038Z,52.30
2022-09-13T19:34:17.890Z,52.30
2022-09-13T19:36:44.482Z,52.30
2022-09-13T19:39:11.150Z,52.30
2022-09-13T19:41:38.013Z,52.30
2022-09-13T19:44:04.773Z,52.50
2022-09-13T19:46:33.165Z,52.80
2022-09-13T19:49:00.553Z,52.70
2022-09-13T19:51:32.192Z,52.70
2022-09-13T19:53:59.437Z,52.80
2022-09-13T19:56:27.628Z,52.70
2022-09-13T19:58:54.221Z,52.80
2022-09-13T20:01:22.616Z,52.70
2022-09-13T20:04:00.485Z,52.70
2022-09-13T20:06:27.832Z,52.80
2022-09-13T20:08:58.073Z,52.70
2022-09-13T20:11:27.808Z,52.70
2022-09-13T20:13:54.597Z,52.70
2022-09-13T20:16:26.456Z,52.70
2022-09-13T20:18:53.064Z,52.50
2022-09-13T20:21:19.709Z,52.60
2022-09-13T20:23:46.530Z,52.70
2022-09-13T20:26:20.845Z,54.20
2022-09-13T20:28:51.021Z,54.30
2022-09-13T20:31:18.169Z,53.90
2022-09-13T20:33:44.812Z,54.10
2022-09-13T20:36:13.133Z,53.80
2022-09-13T20:38:39.912Z,53.40
2022-09-13T20:41:08.098Z,53.00
2022-09-13T20:43:36.013Z,53.20
2022-09-13T20:46:02.911Z,53.10
2022-09-13T20:48:29.523Z,53.00
2022-09-13T20:51:06.600Z,53.10
2022-09-13T20:53:33.415Z,53.10
2022-09-13T20:56:08.953Z,53.00
2022-09-13T20:58:38.664Z,53.00
2022-09-13T21:01:09.947Z,53.00
2022-09-13T21:03:38.611Z,52.90
2022-09-13T21:06:05.865Z,52.80
2022-09-13T21:08:41.815Z,52.80
2022-09-13T21:11:13.739Z,52.70
2022-09-13T21:13:43.031Z,52.70
2022-09-13T21:16:11.745Z,52.70
2022-09-13T21:18:38.606Z,52.60
2022-09-13T21:21:05.723Z,52.70
2022-09-13T21:23:33.452Z,52.70
2022-09-13T21:26:05.634Z,52.60
2022-09-13T21:28:34.922Z,52.60
2022-09-13T21:31:04.383Z,52.60
2022-09-13T21:33:31.153Z,52.50
2022-09-13T21:35:59.061Z,52.60
2022-09-13T21:38:26.248Z,52.60
2022-09-13T21:41:03.873Z,52.60
2022-09-13T21:43:30.615Z,52.60
2022-09-13T21:46:07.366Z,52.50
2022-09-13T21:48:34.813Z,52.40
2022-09-13T21:51:05.816Z,52.40
2022-09-13T21:53:36.338Z,52.40
2022-09-13T21:56:07.386Z,52.30
2022-09-13T21:58:34.188Z,52.30
2022-09-13T22:01:05.459Z,52.20
2022-09-13T22:03:37.360Z,52.10
2022-09-13T22:06:04.227Z,52.10
2022-09-13T22:08:39.016Z,52.00
2022-09-13T22:11:11.034Z,52.10
2022-09-13T22:13:45.363Z,52.10
2022-09-13T22:16:14.241Z,52.20
2022-09-13T22:18:41.032Z,52.30
2022-09-13T22:21:09.300Z,52.30
2022-09-13T22:23:36.005Z,52.20
2022-09-13T22:26:09.964Z,52.30
2022-09-13T22:28:36.558Z,52.20
2022-09-13T22:31:05.336Z,52.30
2022-09-13T22:33:32.612Z,52.20
2022-09-13T22:36:00.601Z,52.90
2022-09-13T22:38:28.562Z,52.30
2022-09-13T22:40:58.490Z,52.30
2022-09-13T22:43:25.147Z,52.20
2022-09-13T22:45:52.193Z,52.80
2022-09-13T22:48:22.719Z,52.10
2022-09-13T22:50:52.741Z,52.10
2022-09-13T22:53:20.069Z,52.00
2022-09-13T22:55:46.866Z,52.00
2022-09-13T22:58:13.776Z,52.00
2022-09-13T23:00:40.945Z,52.00
2022-09-13T23:03:07.713Z,52.00
2022-09-13T23:05:34.592Z,52.00
2022-09-13T23:08:01.317Z,52.00
2022-09-13T23:10:27.961Z,52.10
2022-09-13T23:12:54.629Z,52.10
2022-09-13T23:15:21.260Z,52.10
2022-09-13T23:17:47.845Z,52.00
2022-09-13T23:20:14.735Z,52.00
2022-09-13T23:22:41.317Z,52.00
2022-09-13T23:25:08.309Z,52.10
2022-09-13T23:27:34.888Z,52.20
2022-09-13T23:30:01.481Z,52.30
2022-09-13T23:32:28.060Z,52.30
2022-09-13T23:34:54.697Z,52.40
2022-09-13T23:37:21.289Z,52.30
2022-09-13T23:39:47.911Z,52.30
2022-09-13T23:42:14.499Z,52.30
2022-09-13T23:44:41.160Z,52.30
2022-09-13T23:47:07.981Z,53.00
2022-09-13T23:49:34.573Z,52.30
2022-09-13T23:52:01.166Z,52.30
2022-09-13T23:54:27.779Z,52.30
2022-09-13T23:56:54.360Z,52.20
2022-09-13T23:59:20.996Z,52.20
